Ana Sayfa
METAR-TAF:

METAR-TAF

Havaalanları :

Zonguldak, Türkiye

Zonguldak Havalimanı

Enlem: 41-27N, Boylam: 031-48E, yükseklik: 136 m

Güncel hava durumu gözlemi

Rapor saat 11:50 UTC de 15 saat ve 36 dakika önce yapıldı.
Rüzgar kuzeydan 11 kt
Sıcaklık 6°C
Nem 93%
Basınç 1012 hPa
Görüş mesafesi: 4000 m
900 ft yükseklikte az bulutlu
2300 ft yükseklikte parçalı bulutlu
8000 ft yükseklikte parçalı çok bulutlu
hafif sağanak yağmurlar, Pus

METAR: LTAS 251150Z 35011KT 4000 -SHRA BR FEW009 SCT023 BKN080 06/05 Q1012

Saat: 06:26 (03:26 UTC)

Tahmin

Rapor saat 01:40 UTC de 1 saat ve 46 dakika önce yapıldı.
Ayın 26'si saat 03 UTC'den ayın 26'si saat 12 UTC'ye kadar geçerli Tahmin
Rüzgar değişken yönden 2 kt
Görüş mesafesi 10 km veya daha fazla
1000 ft yükseklikte az bulutlu
3000 ft yükseklikte parçalı bulutlu
8000 ft yükseklikte parçalı çok bulutlu

TAF: LTAS 260140Z 2603/2612 VRB02KT 9999 FEW010 SCT030 BKN080

4.000'den fazla havaalanı için hava durumu gözlemleri ve tahminleri (METAR ve TAF raporları).

Kullanılabilir istasyonlar harita üzerinde sarı ve kırmızı noktalarla gösterilir.

İstasyonun adını görmek için fareyi noktanın üzerinde gezdirin.

Sonrasında hava gözlem ve tahminlerini görmek için tıklayın.

Haritayı değiştirmek için: yaklaştırmak için siyah artı işaretli yeşil düğmeye ve uzaklaştırmak için de eksi işaretli düğmeye hızla tıklayın; bitişik haritalar için yeşil okları kullanın.


METAR-TAF: